createdAt,value
2018-04-30T05:13:47.701Z,66.9
2018-04-30T05:14:37.268Z,66.9
2018-04-30T05:15:28.114Z,66.9
2018-04-30T05:16:17.616Z,66.9
2018-04-30T05:17:08.296Z,66.9
2018-04-30T05:17:58.312Z,66.9
2018-04-30T05:18:48.091Z,66.9
2018-04-30T05:19:38.425Z,66.9
2018-04-30T05:20:28.213Z,66.9
2018-04-30T05:21:18.298Z,66.8
2018-04-30T05:22:08.068Z,66.8
2018-04-30T05:22:58.681Z,66.8
2018-04-30T05:23:48.733Z,66.8
2018-04-30T05:24:38.542Z,66.8
2018-04-30T05:25:28.928Z,66.8
2018-04-30T05:26:18.681Z,66.8
2018-04-30T05:27:09.019Z,66.8
2018-04-30T05:27:58.801Z,66.8
2018-04-30T05:28:49.231Z,66.8
2018-04-30T05:29:38.741Z,66.8
2018-04-30T05:30:29.257Z,66.8
2018-04-30T05:31:18.866Z,66.7
2018-04-30T05:32:09.232Z,66.8
2018-04-30T05:32:59.201Z,66.7
2018-04-30T05:33:49.930Z,66.7
2018-04-30T05:34:39.036Z,66.7
2018-04-30T05:35:29.197Z,66.7
2018-04-30T05:36:19.742Z,66.7
2018-04-30T05:37:09.498Z,66.6
2018-04-30T05:37:58.986Z,66.6
2018-04-30T05:38:49.080Z,66.6
2018-04-30T05:39:39.970Z,66.6
2018-04-30T05:40:29.168Z,66.6
2018-04-30T05:41:19.378Z,66.6
2018-04-30T05:42:09.894Z,66.6
2018-04-30T05:42:59.698Z,66.6
2018-04-30T05:43:50.051Z,66.6
2018-04-30T05:44:39.811Z,66.6
2018-04-30T05:45:30.160Z,66.6
2018-04-30T05:46:19.384Z,66.6
2018-04-30T05:47:09.700Z,66.6
2018-04-30T05:48:00.412Z,66.6
2018-04-30T05:48:50.123Z,66.5
2018-04-30T05:49:40.468Z,66.5
2018-04-30T05:50:30.907Z,66.5
2018-04-30T05:51:20.053Z,66.5
2018-04-30T05:52:10.681Z,66.5
2018-04-30T05:53:00.695Z,66.5
2018-04-30T05:53:50.783Z,66.4
2018-04-30T05:54:40.866Z,66.4
2018-04-30T05:55:30.931Z,66.4
2018-04-30T05:56:20.982Z,66.4
2018-04-30T05:57:11.332Z,66.4
2018-04-30T05:58:01.097Z,66.4
2018-04-30T05:58:51.426Z,66.4
2018-04-30T05:59:41.502Z,66.4
2018-04-30T06:00:31.832Z,66.4
2018-04-30T06:01:21.170Z,66.4
2018-04-30T06:02:11.142Z,66.4
2018-04-30T06:03:01.502Z,66.4
2018-04-30T06:03:51.855Z,66.3
2018-04-30T06:04:41.611Z,66.3
2018-04-30T06:05:31.669Z,66.3
2018-04-30T06:06:21.754Z,66.3
2018-04-30T06:07:11.292Z,66.3
2018-04-30T06:08:02.162Z,66.3
2018-04-30T06:08:51.693Z,66.3
2018-04-30T06:09:42.014Z,66.3
2018-04-30T06:10:32.343Z,66.3
2018-04-30T06:11:22.202Z,66.3
2018-04-30T06:12:12.254Z,66.3
2018-04-30T06:13:02.291Z,66.3
2018-04-30T06:13:52.622Z,66.2
2018-04-30T06:14:42.663Z,66.2
2018-04-30T06:15:32.724Z,66.2
2018-04-30T06:16:22.525Z,66.2
2018-04-30T06:17:12.863Z,66.2
2018-04-30T06:18:02.395Z,66.2
2018-04-30T06:18:52.411Z,66.1
2018-04-30T06:19:43.127Z,66.1
2018-04-30T06:20:33.102Z,66.1
2018-04-30T06:21:22.602Z,66.1
2018-04-30T06:22:13.244Z,66.1
2018-04-30T06:23:02.764Z,66.1
2018-04-30T06:23:53.163Z,66.1
2018-04-30T06:24:43.467Z,66.1
2018-04-30T06:25:33.481Z,66.1
2018-04-30T06:26:23.588Z,66.1
2018-04-30T06:27:12.801Z,66.1
2018-04-30T06:28:03.693Z,66.1
2018-04-30T06:28:53.504Z,66.1
2018-04-30T06:29:43.540Z,66
2018-04-30T06:30:33.885Z,66
2018-04-30T06:31:23.108Z,66
2018-04-30T06:32:13.744Z,66
2018-04-30T06:33:04.078Z,66
2018-04-30T06:33:54.155Z,66
2018-04-30T06:34:43.669Z,65.9
2018-04-30T06:35:34.256Z,65.9
2018-04-30T06:36:23.812Z,65.9
2018-04-30T06:37:14.109Z,65.9
2018-04-30T06:38:04.467Z,65.9
2018-04-30T06:38:54.296Z,65.9
2018-04-30T06:39:44.295Z,65.9
2018-04-30T06:40:34.105Z,65.9
2018-04-30T06:41:24.705Z,65.9
2018-04-30T06:42:14.489Z,65.9
2018-04-30T06:43:04.566Z,65.9
2018-04-30T06:43:54.089Z,65.9
2018-04-30T06:44:44.976Z,65.9
2018-04-30T06:45:34.166Z,65.8
2018-04-30T06:46:24.838Z,65.8
2018-04-30T06:47:14.900Z,65.8
2018-04-30T06:48:05.241Z,65.8
2018-04-30T06:48:54.811Z,65.8
2018-04-30T06:49:45.396Z,65.8
2018-04-30T06:50:34.982Z,65.8
2018-04-30T06:51:24.951Z,65.8
2018-04-30T06:52:15.587Z,65.8
2018-04-30T06:53:05.327Z,65.8
2018-04-30T06:53:55.421Z,65.8
2018-04-30T06:54:45.741Z,65.8
2018-04-30T06:55:35.339Z,65.8
2018-04-30T06:56:25.911Z,65.7
2018-04-30T06:57:15.439Z,65.7
2018-04-30T06:58:05.249Z,65.7
2018-04-30T06:58:55.390Z,65.7
2018-04-30T06:59:45.101Z,65.7
2018-04-30T07:00:35.450Z,65.7
2018-04-30T07:01:25.959Z,65.7
2018-04-30T07:02:16.069Z,65.7
2018-04-30T07:03:06.419Z,65.6
2018-04-30T07:03:56.221Z,65.6
2018-04-30T07:04:45.983Z,65.6
2018-04-30T07:05:36.595Z,65.6
2018-04-30T07:06:26.716Z,65.6
2018-04-30T07:07:16.199Z,65.6
2018-04-30T07:08:06.260Z,65.6
2018-04-30T07:08:56.847Z,65.6
2018-04-30T07:09:47.325Z,65.6
2018-04-30T07:10:36.991Z,65.6
2018-04-30T07:11:27.065Z,65.6
2018-04-30T07:12:17.137Z,65.6
2018-04-30T07:13:06.923Z,65.5
2018-04-30T07:13:57.284Z,65.5
2018-04-30T07:14:46.490Z,65.5
2018-04-30T07:15:37.397Z,65.5
2018-04-30T07:16:27.509Z,65.5
2018-04-30T07:17:17.239Z,65.5
2018-04-30T07:18:06.882Z,65.4
2018-04-30T07:18:57.369Z,65.4
2018-04-30T07:19:47.273Z,65.4
2018-04-30T07:20:37.761Z,65.4
2018-04-30T07:21:27.542Z,65.4
2018-04-30T07:22:17.335Z,65.4
2018-04-30T07:23:07.722Z,65.4
2018-04-30T07:23:57.753Z,65.4
2018-04-30T07:24:47.572Z,65.4
2018-04-30T07:25:37.872Z,65.4
2018-04-30T07:26:27.388Z,65.4
2018-04-30T07:27:18.286Z,65.4
2018-04-30T07:28:08.087Z,65.4
2018-04-30T07:28:57.864Z,65.4
2018-04-30T07:29:48.509Z,65.3
2018-04-30T07:30:38.286Z,65.3
2018-04-30T07:31:28.653Z,65.3
2018-04-30T07:32:18.717Z,65.3
2018-04-30T07:33:08.892Z,65.3
2018-04-30T07:33:58.641Z,65.3
2018-04-30T07:34:48.901Z,65.3
2018-04-30T07:35:39.048Z,65.3
2018-04-30T07:36:28.546Z,65.3
2018-04-30T07:37:18.798Z,65.3
2018-04-30T07:38:08.854Z,65.3
2018-04-30T07:38:59.038Z,65.3
2018-04-30T07:39:49.319Z,65.3
2018-04-30T07:40:38.233Z,65.2
2018-04-30T07:41:29.430Z,65.2
2018-04-30T07:42:18.938Z,65.2
2018-04-30T07:43:08.710Z,65.2
2018-04-30T07:43:59.623Z,65.2
2018-04-30T07:44:49.405Z,65.1
2018-04-30T07:45:39.477Z,65.1
2018-04-30T07:46:29.815Z,65.1
2018-04-30T07:47:19.324Z,65.1
2018-04-30T07:48:09.929Z,65.1
2018-04-30T07:48:59.457Z,65.1
2018-04-30T07:49:49.507Z,65.1
2018-04-30T07:50:40.197Z,65.1
2018-04-30T07:51:30.181Z,65.1
2018-04-30T07:52:20.001Z,65.1
2018-04-30T07:53:10.092Z,65.1
2018-04-30T07:54:00.387Z,65.1
2018-04-30T07:54:49.427Z,65.1
2018-04-30T07:55:40.532Z,65.1
2018-04-30T07:56:30.574Z,65.1
2018-04-30T07:57:21.457Z,65
2018-04-30T07:58:10.701Z,65
2018-04-30T07:59:00.518Z,65
2018-04-30T07:59:50.649Z,65
2018-04-30T08:00:40.924Z,65
2018-04-30T08:01:31.016Z,65
2018-04-30T08:02:20.516Z,65
2018-04-30T08:03:11.842Z,65
2018-04-30T08:04:01.185Z,65
2018-04-30T08:04:50.962Z,64.9
2018-04-30T08:05:41.023Z,64.9
2018-04-30T08:06:31.352Z,64.9
2018-04-30T08:07:21.181Z,64.9
2018-04-30T08:08:11.494Z,64.9
2018-04-30T08:09:01.463Z,64.9
2018-04-30T08:09:51.399Z,64.9
2018-04-30T08:10:41.405Z,64.9
2018-04-30T08:11:31.763Z,64.9
2018-04-30T08:12:21.564Z,64.9
2018-04-30T08:13:11.699Z,64.9
2018-04-30T08:14:01.694Z,64.9
2018-04-30T08:14:52.062Z,64.8
2018-04-30T08:15:41.907Z,64.8
2018-04-30T08:16:31.873Z,64.8
2018-04-30T08:17:21.689Z,64.8
2018-04-30T08:18:11.745Z,64.8
2018-04-30T08:19:01.800Z,64.8
2018-04-30T08:19:52.452Z,64.8
2018-04-30T08:20:41.936Z,64.8
2018-04-30T08:21:32.369Z,64.8
2018-04-30T08:22:22.184Z,64.8
2018-04-30T08:23:12.437Z,64.8
2018-04-30T08:24:02.477Z,64.8
2018-04-30T08:24:52.558Z,64.8
2018-04-30T08:25:42.624Z,64.8
2018-04-30T08:26:31.844Z,64.7
2018-04-30T08:27:23.021Z,64.7
2018-04-30T08:28:13.077Z,64.7
2018-04-30T08:29:02.866Z,64.7
2018-04-30T08:29:52.992Z,64.7
2018-04-30T08:30:42.718Z,64.7
2018-04-30T08:31:33.353Z,64.7
2018-04-30T08:32:22.956Z,64.7
2018-04-30T08:33:12.912Z,64.6
2018-04-30T08:34:03.277Z,64.6
2018-04-30T08:34:53.128Z,64.6
2018-04-30T08:35:43.229Z,64.6
2018-04-30T08:36:34.013Z,64.6
2018-04-30T08:37:23.815Z,64.6
2018-04-30T08:38:13.144Z,64.6
2018-04-30T08:39:04.010Z,64.6
2018-04-30T08:39:53.477Z,64.6
2018-04-30T08:40:43.497Z,64.6
2018-04-30T08:41:33.914Z,64.6
2018-04-30T08:42:23.932Z,64.6
2018-04-30T08:43:14.034Z,64.6
2018-04-30T08:44:04.067Z,64.5
2018-04-30T08:44:54.134Z,64.5
2018-04-30T08:45:44.184Z,64.5
2018-04-30T08:46:33.969Z,64.5
2018-04-30T08:47:24.606Z,64.5
2018-04-30T08:48:14.115Z,64.5
2018-04-30T08:49:04.741Z,64.4
2018-04-30T08:49:54.794Z,64.4
2018-04-30T08:50:44.584Z,64.4
2018-04-30T08:51:34.082Z,64.4
2018-04-30T08:52:25.054Z,64.4
2018-04-30T08:53:14.038Z,64.4
2018-04-30T08:54:04.409Z,64.4
2018-04-30T08:54:54.091Z,64.4
2018-04-30T08:55:44.533Z,64.4
2018-04-30T08:56:35.076Z,64.4
2018-04-30T08:57:24.553Z,64.4
2018-04-30T08:58:15.212Z,64.4
2018-04-30T08:59:05.641Z,64.4
2018-04-30T08:59:55.579Z,64.4
2018-04-30T09:00:45.440Z,64.4
2018-04-30T09:01:35.171Z,64.4
2018-04-30T09:02:25.234Z,64.4
2018-04-30T09:03:15.855Z,64.4
2018-04-30T09:04:05.632Z,64.3
2018-04-30T09:04:55.958Z,64.3
2018-04-30T09:05:46.049Z,64.3
2018-04-30T09:06:36.132Z,64.3
2018-04-30T09:07:25.651Z,64.3
2018-04-30T09:08:16.279Z,64.3
2018-04-30T09:09:05.784Z,64.3
2018-04-30T09:09:56.382Z,64.3
2018-04-30T09:10:46.488Z,64.3
2018-04-30T09:11:35.946Z,64.3
2018-04-30T09:12:26.318Z,64.3
2018-04-30T09:13:16.398Z,64.3
2018-04-30T09:14:06.199Z,64.3
2018-04-30T09:14:56.985Z,64.3
2018-04-30T09:15:46.873Z,64.2
2018-04-30T09:16:36.945Z,64.2
2018-04-30T09:17:26.696Z,64.2
2018-04-30T09:18:16.783Z,64.2
2018-04-30T09:19:06.535Z,64.2
2018-04-30T09:19:56.594Z,64.2
2018-04-30T09:20:47.226Z,64.1
2018-04-30T09:21:37.291Z,64.1
2018-04-30T09:22:27.363Z,64.1
2018-04-30T09:23:16.844Z,64.1
2018-04-30T09:24:07.503Z,64.1
2018-04-30T09:24:57.570Z,64.1
2018-04-30T09:25:47.355Z,64.1
2018-04-30T09:26:37.402Z,64.1
2018-04-30T09:27:27.825Z,64
2018-04-30T09:28:18.651Z,63.8
2018-04-30T09:29:08.613Z,63.8
2018-04-30T09:29:57.946Z,63.8
2018-04-30T09:30:47.770Z,63.8
2018-04-30T09:31:38.110Z,63.8
2018-04-30T09:32:28.150Z,63.9
2018-04-30T09:33:17.957Z,63.9
2018-04-30T09:34:08.016Z,64.1
2018-04-30T09:34:57.868Z,64.2
2018-04-30T09:35:47.864Z,64.3
2018-04-30T09:36:38.522Z,64.4
2018-04-30T09:37:28.373Z,64.5
2018-04-30T09:38:18.144Z,64.6
2018-04-30T09:39:08.400Z,64.7
2018-04-30T09:39:58.751Z,64.8
2018-04-30T09:40:48.835Z,64.9
2018-04-30T09:41:38.342Z,65
2018-04-30T09:42:28.932Z,65.1
2018-04-30T09:43:18.759Z,65.1
2018-04-30T09:44:08.534Z,65.3
2018-04-30T09:44:58.872Z,65.4
2018-04-30T09:45:48.944Z,65.4
2018-04-30T09:46:39.000Z,65.5
2018-04-30T09:47:29.102Z,65.6
2018-04-30T09:48:19.133Z,65.7
2018-04-30T09:49:08.958Z,65.8
2018-04-30T09:49:59.278Z,65.9
2018-04-30T09:50:49.327Z,66
2018-04-30T09:51:39.402Z,66.1
2018-04-30T09:52:28.069Z,66.1
2018-04-30T09:53:19.817Z,66.2
2018-04-30T09:54:09.856Z,66.3
2018-04-30T09:54:59.669Z,66.4
2018-04-30T09:55:50.004Z,66.4
2018-04-30T09:56:39.819Z,66.4
2018-04-30T09:57:30.164Z,66.6
2018-04-30T09:58:20.213Z,66.6
2018-04-30T09:59:09.726Z,66.6
2018-04-30T10:00:00.377Z,66.8
2018-04-30T10:00:50.403Z,66.9
2018-04-30T10:01:40.480Z,66.9
2018-04-30T10:02:30.624Z,67
2018-04-30T10:03:20.656Z,67
2018-04-30T10:04:10.219Z,67.1
2018-04-30T10:05:00.751Z,67.1
2018-04-30T10:05:50.549Z,67.2
2018-04-30T10:06:40.605Z,67.2
2018-04-30T10:07:30.709Z,67.3
2018-04-30T10:08:20.755Z,67.3
2018-04-30T10:09:10.819Z,67.3
2018-04-30T10:10:00.854Z,67.3
2018-04-30T10:10:51.210Z,67.4
2018-04-30T10:11:41.010Z,67.4
2018-04-30T10:12:30.518Z,67.4
2018-04-30T10:13:21.131Z,67.4
2018-04-30T10:14:11.224Z,67.4
2018-04-30T10:15:01.064Z,67.4
2018-04-30T10:15:50.799Z,67.4
2018-04-30T10:16:41.144Z,67.4
2018-04-30T10:17:31.497Z,67.4
2018-04-30T10:18:21.924Z,67.4
2018-04-30T10:19:11.614Z,67.4
2018-04-30T10:20:00.903Z,67.5
2018-04-30T10:20:51.774Z,67.5
2018-04-30T10:21:42.160Z,67.6
2018-04-30T10:22:31.318Z,67.6
2018-04-30T10:23:22.468Z,67.6
2018-04-30T10:24:11.710Z,67.6
2018-04-30T10:25:00.943Z,67.6
2018-04-30T10:25:52.405Z,67.6
2018-04-30T10:26:42.218Z,67.7
2018-04-30T10:27:32.153Z,67.7
2018-04-30T10:28:22.036Z,67.8
2018-04-30T10:29:12.994Z,67.8
2018-04-30T10:30:02.275Z,67.8
2018-04-30T10:30:52.797Z,67.9
2018-04-30T10:31:43.569Z,67.9
2018-04-30T10:32:32.671Z,67.9
2018-04-30T10:33:22.453Z,68
2018-04-30T10:34:12.796Z,68.1
2018-04-30T10:35:02.868Z,68.1
2018-04-30T10:35:52.697Z,68.1
2018-04-30T10:36:43.021Z,68.1
2018-04-30T10:37:33.319Z,68.2
2018-04-30T10:38:23.153Z,68.2
2018-04-30T10:39:12.939Z,68.2
2018-04-30T10:40:03.271Z,68.3
2018-04-30T10:40:53.592Z,68.3
2018-04-30T10:41:43.667Z,68.3
2018-04-30T10:42:33.478Z,68.4
2018-04-30T10:43:22.982Z,68.4
2018-04-30T10:44:13.866Z,68.5
2018-04-30T10:45:03.951Z,68.6
2018-04-30T10:45:55.201Z,68.7
2018-04-30T10:46:43.792Z,68.8
2018-04-30T10:47:33.604Z,68.8
2018-04-30T10:48:24.199Z,68.8
2018-04-30T10:49:13.794Z,68.9
2018-04-30T10:50:03.802Z,68.9
2018-04-30T10:50:53.561Z,68.9
2018-04-30T10:51:44.642Z,68.9
2018-04-30T10:52:33.671Z,68.9
2018-04-30T10:53:24.590Z,69
2018-04-30T10:54:14.657Z,69
2018-04-30T10:55:04.469Z,69
2018-04-30T10:55:54.266Z,69.1
2018-04-30T10:56:44.566Z,69.1
2018-04-30T10:57:34.380Z,69.1
2018-04-30T10:58:24.525Z,69.1
2018-04-30T10:59:14.026Z,69.1
2018-04-30T11:00:04.292Z,69.1
2018-04-30T11:00:54.611Z,69.1
2018-04-30T11:01:44.455Z,69.1
2018-04-30T11:02:35.417Z,69.1
2018-04-30T11:03:25.105Z,69.1
2018-04-30T11:04:14.991Z,69.1
2018-04-30T11:05:04.713Z,69.1
2018-04-30T11:05:54.839Z,69.1
2018-04-30T11:06:45.180Z,69.1
2018-04-30T11:07:35.156Z,69.1
2018-04-30T11:08:25.824Z,69.1
2018-04-30T11:09:15.306Z,69.1
2018-04-30T11:10:05.402Z,69.1
2018-04-30T11:10:55.233Z,69.1
2018-04-30T11:11:45.487Z,69.1
2018-04-30T11:12:35.955Z,69.1
2018-04-30T11:13:25.350Z,69.1
2018-04-30T11:14:16.254Z,69.2
2018-04-30T11:15:06.326Z,69.1
2018-04-30T11:15:56.367Z,69.2
2018-04-30T11:16:46.155Z,69.2
2018-04-30T11:17:36.517Z,69.2
2018-04-30T11:18:26.297Z,69.2
2018-04-30T11:19:16.120Z,69.2
2018-04-30T11:20:06.461Z,69.2
2018-04-30T11:20:56.486Z,69.2
2018-04-30T11:21:46.570Z,69.2
2018-04-30T11:22:36.915Z,69.2
2018-04-30T11:23:26.453Z,69.2
2018-04-30T11:24:16.791Z,69.2
2018-04-30T11:25:07.109Z,69.2
2018-04-30T11:25:56.900Z,69.1
2018-04-30T11:26:46.692Z,69.2
2018-04-30T11:27:37.767Z,69.2
2018-04-30T11:28:27.114Z,69.2
2018-04-30T11:29:17.467Z,69.2
2018-04-30T11:30:07.237Z,69.2
2018-04-30T11:30:57.576Z,69.2
2018-04-30T11:31:46.792Z,69.2
2018-04-30T11:32:36.912Z,69.2
2018-04-30T11:33:27.840Z,69.1
2018-04-30T11:34:17.226Z,69.1
2018-04-30T11:35:08.007Z,69.1
2018-04-30T11:35:58.068Z,69.1
2018-04-30T11:36:48.104Z,69.1
2018-04-30T11:37:38.183Z,69.1
2018-04-30T11:38:27.939Z,69.1
2018-04-30T11:39:17.817Z,69.1
2018-04-30T11:40:08.605Z,69.1
2018-04-30T11:40:58.198Z,69.1
2018-04-30T11:41:48.218Z,69.1
2018-04-30T11:42:38.275Z,69.1
2018-04-30T11:43:28.347Z,69.2
2018-04-30T11:44:19.572Z,69.2
2018-04-30T11:45:08.519Z,69.2
2018-04-30T11:45:58.851Z,69.2
2018-04-30T11:46:48.657Z,69.2
2018-04-30T11:47:40.028Z,69.3
2018-04-30T11:48:28.188Z,69.3
2018-04-30T11:49:18.569Z,69.3
2018-04-30T11:50:08.899Z,69.3
2018-04-30T11:51:01.775Z,69.3
2018-04-30T11:51:48.237Z,69.3
2018-04-30T11:52:39.344Z,69.3
2018-04-30T11:53:28.577Z,69.3
2018-04-30T11:54:19.470Z,69.4
2018-04-30T11:55:09.287Z,69.3
2018-04-30T11:55:59.684Z,69.4
2018-04-30T11:56:49.137Z,69.4
2018-04-30T11:57:39.519Z,69.4
2018-04-30T11:58:29.839Z,69.4
2018-04-30T11:59:19.616Z,69.4
2018-04-30T12:00:09.095Z,69.4
2018-04-30T12:01:00.066Z,69.3
2018-04-30T12:01:49.820Z,69.3
2018-04-30T12:02:39.588Z,69.4
2018-04-30T12:03:29.706Z,69.3
2018-04-30T12:04:19.782Z,69.4
2018-04-30T12:05:09.791Z,69.3
2018-04-30T12:05:59.852Z,69.3
2018-04-30T12:06:49.986Z,69.3
2018-04-30T12:07:40.601Z,69.3
2018-04-30T12:08:30.342Z,69.3
2018-04-30T12:09:20.126Z,69.3
2018-04-30T12:10:10.977Z,69.3
2018-04-30T12:11:01.363Z,69.3
2018-04-30T12:11:50.930Z,69.3
2018-04-30T12:12:40.375Z,69.3
2018-04-30T12:13:31.993Z,69.3
2018-04-30T12:14:20.505Z,69.3
2018-04-30T12:15:11.180Z,69.3
2018-04-30T12:16:00.886Z,69.3
2018-04-30T12:16:53.345Z,69.3
2018-04-30T12:17:40.624Z,69.3
2018-04-30T12:18:31.201Z,69.3
2018-04-30T12:19:20.737Z,69.3
2018-04-30T12:20:12.954Z,69.3
2018-04-30T12:21:00.878Z,69.3
2018-04-30T12:21:51.381Z,69.3
2018-04-30T12:22:41.815Z,69.3
2018-04-30T12:23:32.306Z,69.3
2018-04-30T12:24:21.295Z,69.3
2018-04-30T12:25:11.959Z,69.3
2018-04-30T12:26:01.739Z,69.3
2018-04-30T12:26:51.226Z,69.3
2018-04-30T12:27:41.947Z,69.3
2018-04-30T12:28:31.943Z,69.2
2018-04-30T12:29:22.278Z,69.3
2018-04-30T12:30:12.054Z,69.2
2018-04-30T12:31:02.137Z,69.2
2018-04-30T12:31:52.185Z,69.2
2018-04-30T12:32:42.383Z,69.2
2018-04-30T12:33:33.817Z,69.2
2018-04-30T12:34:22.666Z,69.2
2018-04-30T12:35:12.767Z,69.2
2018-04-30T12:36:02.971Z,69.2
2018-04-30T12:36:52.606Z,69.2
2018-04-30T12:37:42.724Z,69.2
2018-04-30T12:38:32.547Z,69.1
2018-04-30T12:39:24.046Z,69.1
2018-04-30T12:40:12.920Z,69.1
2018-04-30T12:41:03.126Z,69.1
2018-04-30T12:41:52.706Z,69.1
2018-04-30T12:42:45.318Z,69.1
2018-04-30T12:43:33.428Z,69.1
2018-04-30T12:44:22.703Z,69.1
2018-04-30T12:45:13.277Z,69.1
2018-04-30T12:46:06.057Z,69.1
2018-04-30T12:46:53.682Z,69.1
2018-04-30T12:47:43.547Z,69.1
2018-04-30T12:48:33.592Z,69.1
2018-04-30T12:49:25.946Z,69.1
2018-04-30T12:50:13.943Z,69.1
2018-04-30T12:51:03.439Z,69.1
2018-04-30T12:51:53.784Z,69.1
2018-04-30T12:52:43.591Z,69.1
2018-04-30T12:53:34.194Z,69.1
2018-04-30T12:54:24.289Z,69.1
2018-04-30T12:55:14.058Z,69.1
2018-04-30T12:56:05.640Z,69
2018-04-30T12:56:54.475Z,69
2018-04-30T12:57:43.958Z,69
2018-04-30T12:58:34.664Z,69
2018-04-30T12:59:24.126Z,69
2018-04-30T13:00:14.166Z,69
2018-04-30T13:01:04.814Z,69
2018-04-30T13:01:58.394Z,69
2018-04-30T13:02:44.961Z,68.9
2018-04-30T13:03:34.420Z,69
2018-04-30T13:04:23.937Z,68.9
2018-04-30T13:05:14.846Z,68.9
2018-04-30T13:06:05.294Z,69
2018-04-30T13:06:55.364Z,68.9
2018-04-30T13:07:44.482Z,68.9
2018-04-30T13:08:35.417Z,68.9
2018-04-30T13:09:25.211Z,68.9
2018-04-30T13:10:15.231Z,68.9
2018-04-30T13:11:06.619Z,68.9
2018-04-30T13:11:55.075Z,68.9
2018-04-30T13:12:44.849Z,68.9
2018-04-30T13:13:35.875Z,68.9
2018-04-30T13:14:29.219Z,68.9
2018-04-30T13:15:15.405Z,68.9
2018-04-30T13:16:06.012Z,68.9
2018-04-30T13:16:56.040Z,68.9
2018-04-30T13:17:45.793Z,68.9
2018-04-30T13:18:35.646Z,68.8
2018-04-30T13:19:25.713Z,68.9
2018-04-30T13:20:15.745Z,68.9
2018-04-30T13:21:05.846Z,68.8
2018-04-30T13:21:55.931Z,68.8
2018-04-30T13:22:45.770Z,68.8
2018-04-30T13:23:36.584Z,68.8
2018-04-30T13:24:26.572Z,68.8
2018-04-30T13:25:16.641Z,68.8
2018-04-30T13:26:06.217Z,68.8
2018-04-30T13:26:55.672Z,68.8
2018-04-30T13:27:46.562Z,68.8
2018-04-30T13:28:37.408Z,68.8
2018-04-30T13:29:26.436Z,68.8
2018-04-30T13:30:17.046Z,68.8
2018-04-30T13:31:06.278Z,68.8
2018-04-30T13:31:56.893Z,68.8
2018-04-30T13:32:47.272Z,68.8
2018-04-30T13:33:37.017Z,68.8
2018-04-30T13:34:27.112Z,68.8
2018-04-30T13:35:17.469Z,68.8
2018-04-30T13:36:06.939Z,68.7
2018-04-30T13:36:57.004Z,68.8
2018-04-30T13:37:47.624Z,68.7
2018-04-30T13:38:37.446Z,68.7
2018-04-30T13:39:27.467Z,68.7
2018-04-30T13:40:17.540Z,68.7
2018-04-30T13:41:07.904Z,68.7
2018-04-30T13:41:57.958Z,68.7
2018-04-30T13:42:48.036Z,68.6
2018-04-30T13:43:38.323Z,68.7
2018-04-30T13:44:27.881Z,68.7
2018-04-30T13:45:18.237Z,68.7
2018-04-30T13:46:08.291Z,68.6
2018-04-30T13:46:58.357Z,68.6
2018-04-30T13:47:48.106Z,68.6
2018-04-30T13:48:38.523Z,68.6
2018-04-30T13:49:28.262Z,68.6
2018-04-30T13:50:18.588Z,68.6
2018-04-30T13:51:08.128Z,68.6
2018-04-30T13:51:58.748Z,68.6
2018-04-30T13:52:48.259Z,68.6
2018-04-30T13:53:38.896Z,68.6
2018-04-30T13:54:28.485Z,68.6
2018-04-30T13:55:18.700Z,68.6
2018-04-30T13:56:08.240Z,68.6
2018-04-30T13:56:59.165Z,68.6
2018-04-30T13:57:49.267Z,68.6
2018-04-30T13:58:39.309Z,68.6
2018-04-30T13:59:28.261Z,68.6
2018-04-30T14:00:19.388Z,68.6
2018-04-30T14:01:08.633Z,68.5
2018-04-30T14:01:59.967Z,68.5
2018-04-30T14:02:49.330Z,68.5
2018-04-30T14:03:39.677Z,68.5
2018-04-30T14:04:29.478Z,68.5
2018-04-30T14:05:19.514Z,68.5
2018-04-30T14:06:09.869Z,68.5
2018-04-30T14:06:59.736Z,68.5
2018-04-30T14:07:49.144Z,68.4
2018-04-30T14:08:39.778Z,68.4
2018-04-30T14:09:30.207Z,68.4
2018-04-30T14:10:19.077Z,68.4
2018-04-30T14:11:09.983Z,68.4
2018-04-30T14:12:00.311Z,68.4
2018-04-30T14:12:50.110Z,68.4
2018-04-30T14:13:40.546Z,68.4
2018-04-30T14:14:30.521Z,68.4
2018-04-30T14:15:20.028Z,68.4
2018-04-30T14:16:11.067Z,68.4
2018-04-30T14:17:00.453Z,68.4
2018-04-30T14:17:50.765Z,68.4
2018-04-30T14:18:40.837Z,68.4
2018-04-30T14:19:30.950Z,68.4
2018-04-30T14:20:20.147Z,68.4
2018-04-30T14:21:10.787Z,68.4
2018-04-30T14:22:00.832Z,68.4
2018-04-30T14:22:51.199Z,68.3
2018-04-30T14:23:40.964Z,68.4
2018-04-30T14:24:30.752Z,68.3
2018-04-30T14:25:20.835Z,68.3
2018-04-30T14:26:10.892Z,68.3
2018-04-30T14:27:00.389Z,68.3
2018-04-30T14:27:51.588Z,68.3
2018-04-30T14:28:41.357Z,68.3
2018-04-30T14:29:30.862Z,68.3
2018-04-30T14:30:21.206Z,68.3
2018-04-30T14:31:10.171Z,68.3
2018-04-30T14:32:01.907Z,68.3
2018-04-30T14:32:51.143Z,68.3
2018-04-30T14:33:41.847Z,68.3
2018-04-30T14:34:31.233Z,68.3
2018-04-30T14:35:21.894Z,68.3
2018-04-30T14:36:12.256Z,68.3
2018-04-30T14:37:02.004Z,68.3
2018-04-30T14:37:52.121Z,68.2
2018-04-30T14:38:42.161Z,68.2
2018-04-30T14:39:32.301Z,68.2
2018-04-30T14:40:22.300Z,68.2
2018-04-30T14:41:11.774Z,68.2
2018-04-30T14:42:02.731Z,68.2
2018-04-30T14:42:52.787Z,68.2
2018-04-30T14:43:42.545Z,68.2
2018-04-30T14:44:33.558Z,68.2
2018-04-30T14:45:22.397Z,68.1
2018-04-30T14:46:12.725Z,68.1
2018-04-30T14:47:03.056Z,68.1
2018-04-30T14:47:53.131Z,68.1
2018-04-30T14:48:42.947Z,68.1
2018-04-30T14:49:33.003Z,68.1
2018-04-30T14:50:22.779Z,68.1
2018-04-30T14:51:13.391Z,68.1
2018-04-30T14:52:02.624Z,68.1
2018-04-30T14:52:52.957Z,68.1
2018-04-30T14:53:43.588Z,68.1
2018-04-30T14:54:33.393Z,68.1
2018-04-30T14:55:23.181Z,68.1
2018-04-30T14:56:13.534Z,68.1
2018-04-30T14:57:03.612Z,68.1
2018-04-30T14:57:53.372Z,68.1
2018-04-30T14:58:43.674Z,68.1
2018-04-30T14:59:34.061Z,68.1
2018-04-30T15:00:24.159Z,68.1
2018-04-30T15:01:13.634Z,68
2018-04-30T15:02:04.268Z,68.1
2018-04-30T15:02:54.042Z,68
2018-04-30T15:03:44.375Z,68
2018-04-30T15:04:34.171Z,68
2018-04-30T15:05:23.951Z,68
2018-04-30T15:06:14.408Z,68
2018-04-30T15:07:03.837Z,68
2018-04-30T15:07:54.447Z,67.9
2018-04-30T15:08:44.787Z,68
2018-04-30T15:09:34.288Z,67.9
2018-04-30T15:10:24.644Z,67.9
2018-04-30T15:11:14.699Z,67.9
2018-04-30T15:12:04.747Z,67.9
2018-04-30T15:12:54.556Z,67.9
2018-04-30T15:13:44.608Z,67.9
2018-04-30T15:14:35.040Z,67.9
2018-04-30T15:15:24.549Z,67.9
2018-04-30T15:16:14.796Z,67.9
2018-04-30T15:17:04.617Z,67.9
2018-04-30T15:17:55.543Z,67.9
2018-04-30T15:18:45.280Z,67.9
2018-04-30T15:19:35.716Z,67.9
2018-04-30T15:20:24.377Z,67.9
2018-04-30T15:21:15.204Z,67.9
2018-04-30T15:22:04.959Z,67.9
2018-04-30T15:22:55.590Z,67.9
2018-04-30T15:23:45.963Z,67.8
2018-04-30T15:24:35.470Z,67.8
2018-04-30T15:25:25.543Z,67.9
2018-04-30T15:26:16.166Z,67.8
2018-04-30T15:27:06.291Z,67.8
2018-04-30T15:27:55.729Z,67.8
2018-04-30T15:28:45.789Z,67.8
2018-04-30T15:29:35.553Z,67.8
2018-04-30T15:30:26.174Z,67.8
2018-04-30T15:31:16.570Z,67.8
2018-04-30T15:32:06.333Z,67.8
2018-04-30T15:32:56.401Z,67.8
2018-04-30T15:33:46.219Z,67.8
2018-04-30T15:34:36.800Z,67.8
2018-04-30T15:35:26.882Z,67.8
2018-04-30T15:36:17.039Z,67.8
2018-04-30T15:37:06.975Z,67.8
2018-04-30T15:37:56.785Z,67.8
2018-04-30T15:38:46.860Z,67.8
2018-04-30T15:39:37.217Z,67.8
2018-04-30T15:40:26.678Z,67.7
2018-04-30T15:41:17.062Z,67.7
2018-04-30T15:42:07.680Z,67.7
2018-04-30T15:42:57.524Z,67.7
2018-04-30T15:43:46.677Z,67.7
2018-04-30T15:44:37.308Z,67.7
2018-04-30T15:45:26.792Z,67.7
2018-04-30T15:46:17.430Z,67.7
2018-04-30T15:47:07.773Z,67.6
2018-04-30T15:47:57.880Z,67.6
2018-04-30T15:48:47.481Z,67.6
2018-04-30T15:49:37.422Z,67.6
2018-04-30T15:50:27.488Z,67.6
2018-04-30T15:51:18.126Z,67.6
2018-04-30T15:52:07.919Z,67.6
2018-04-30T15:52:57.988Z,67.6
2018-04-30T15:53:47.732Z,67.6
2018-04-30T15:54:37.821Z,67.6
2018-04-30T15:55:28.158Z,67.6
2018-04-30T15:56:18.512Z,67.6
2018-04-30T15:57:08.028Z,67.6
2018-04-30T15:57:58.895Z,67.6
2018-04-30T15:58:48.437Z,67.6
2018-04-30T15:59:38.472Z,67.6
2018-04-30T16:00:28.250Z,67.5
2018-04-30T16:01:18.586Z,67.5
2018-04-30T16:02:08.424Z,67.5
2018-04-30T16:02:59.009Z,67.5
2018-04-30T16:03:48.817Z,67.5
2018-04-30T16:04:38.602Z,67.5
2018-04-30T16:05:28.366Z,67.5
2018-04-30T16:06:19.377Z,67.5
2018-04-30T16:07:09.112Z,67.5
2018-04-30T16:07:59.154Z,67.5
2018-04-30T16:08:49.190Z,67.4
2018-04-30T16:09:38.964Z,67.4
2018-04-30T16:10:29.347Z,67.4
2018-04-30T16:11:18.831Z,67.4
2018-04-30T16:12:09.165Z,67.4
2018-04-30T16:12:59.619Z,67.4
2018-04-30T16:13:49.982Z,67.4
2018-04-30T16:14:39.934Z,67.4
2018-04-30T16:15:29.441Z,67.4
2018-04-30T16:16:20.103Z,67.4
2018-04-30T16:17:09.912Z,67.4
2018-04-30T16:17:59.925Z,67.4
2018-04-30T16:18:49.977Z,67.4
2018-04-30T16:19:39.826Z,67.4
2018-04-30T16:20:29.715Z,67.4
2018-04-30T16:21:20.256Z,67.4
2018-04-30T16:22:10.232Z,67.4